Flight Track Log - Related Links

Times and Time Zones

All times are in EDT time to prevent confusion due to time zone crossing. See the FLG3429 flight status page for this flight to view local times or setup timezone preferences in your user account.

Time Position Orientation Groundspeed Altitude Reporting Facility
EDT Latitude Longitude Course Direction KTS MPH feet Rate Location/Type
Sun 10:00:01 PM 44.8667 -93.1333 65° Northeast 186 214 2,800  Level Minneapolis TRACON
Sun 10:00:18 PM 44.8636 -93.1094 100° East 186 214 3,400 1,671 Climbing Minneapolis Center
Sun 10:01:20 PM 44.8669 -93.0167 87° East 261 300 5,000 2,146 Climbing Minneapolis Center
Sun 10:02:00 PM 45.0499 -92.5755 66° East  Level FlightAware Approximate
Sun 10:02:21 PM 44.9283 -92.9494 38° Northeast 279 321 7,800  Level Minneapolis Center
Sun 10:03:00 PM 45.0999 -92.4170 65° Northeast  Level FlightAware Approximate
Sun 10:03:23 PM 44.9969 -92.8858 33° Northeast 295 339 10,300  Level Minneapolis Center
Sun 10:04:00 PM 45.1350 -92.2524 69° East  Level FlightAware Approximate
Sun 10:04:24 PM 45.0731 -92.8153 33° Northeast 334 384 11,700  Level Minneapolis Center
Sun 10:05:00 PM 45.1791 -92.0961 65° Northeast  Level FlightAware Approximate
Sun 10:05:26 PM 45.1569 -92.7372 33° Northeast 362 417 13,700  Level Minneapolis Center
Sun 10:06:27 PM 45.2528 -92.6256 39° Northeast 382 440 15,900 2,016 Climbing Minneapolis Center
Sun 10:07:28 PM 45.2761 -92.4811 77° East 378 435 17,800 1,756 Climbing Minneapolis Center
Sun 10:08:30 PM 45.2961 -92.3336 79° East 382 440 19,500 1,561 Climbing Minneapolis Center
Sun 10:09:31 PM 45.3175 -92.1778 79° East 399 459 21,000 1,463 Climbing Minneapolis Center
Sun 10:10:33 PM 45.3386 -92.0175 79° East 411 473 22,500 1,463 Climbing Minneapolis Center
Sun 10:11:34 PM 45.3628 -91.8556 78° East 419 482 24,000 1,268 Climbing Minneapolis Center
Sun 10:12:36 PM 45.3847 -91.6889 79° East 429 494 25,100 1,073 Climbing Minneapolis Center
Sun 10:13:37 PM 45.4069 -91.5169 80° East 440 506 26,200 1,024 Climbing Minneapolis Center
Sun 10:14:39 PM 45.4281 -91.3419 80° East 447 514 27,200 1,073 Climbing Minneapolis Center
Sun 10:15:40 PM 45.4561 -91.1361 79° East 456 525 28,400 1,171 Climbing Minneapolis Center
Sun 10:16:42 PM 45.4536 -90.9569 91° East 453 521 29,600 1,220 Climbing Minneapolis Center
Sun 10:17:43 PM 45.4042 -90.7939 113° Southeast 451 519 30,900 1,328 Climbing Minneapolis Center
Sun 10:18:44 PM 45.3531 -90.6339 114° Southeast 448 516 32,300 1,171 Climbing Minneapolis Center
Sun 10:19:46 PM 45.3025 -90.4742 114° Southeast 446 513 33,300 829 Climbing Minneapolis Center
Sun 10:20:47 PM 45.2533 -90.3183 114° Southeast 438 504 34,000 732 Climbing Minneapolis Center
Sun 10:21:49 PM 45.1919 -90.1297 115° Southeast 440 506 34,800 488 Climbing Minneapolis Center
Sun 10:22:50 PM 45.1431 -89.9733 114° Southeast 439 505 35,000 98 Climbing Minneapolis Center
Sun 10:23:52 PM 45.0911 -89.8131 115° Southeast 445 512 35,000  Level Minneapolis Center
Sun 10:24:53 PM 45.0367 -89.6450 115° Southeast 453 521 35,000  Level Minneapolis Center
Sun 10:25:55 PM 44.9900 -89.4786 112° Southeast 455 524 35,000  Level Minneapolis Center
Sun 10:26:56 PM 44.9525 -89.3064 107° East 457 526 35,000  Level Minneapolis Center
Sun 10:27:58 PM 44.9136 -89.1369 108° East 455 524 35,000  Level Minneapolis Center
Sun 10:28:59 PM 44.8756 -88.9681 108° East 453 521 35,000  Level Minneapolis Center
Sun 10:30:00 PM 44.8375 -88.8006 108° East 449 517 35,000  Level Minneapolis Center
Sun 10:31:02 PM 44.7936 -88.6069 108° East 445 512 35,000  Level Minneapolis Center
Sun 10:32:03 PM 44.7547 -88.4436 108° East 440 506 35,000  Level Minneapolis Center
Sun 10:33:05 PM 44.7164 -88.2758 108° East 448 516 35,000  Level Minneapolis Center
Sun 10:34:06 PM 44.6767 -88.1069 108° East 453 521 35,000  Level Minneapolis Center
Sun 10:35:07 PM 44.6375 -87.9361 108° East 457 526 35,000  Level Minneapolis Center
Sun 10:36:09 PM 44.5983 -87.7789 109° East 455 524 35,000  Level Minneapolis Center
Sun 10:37:10 PM 44.5594 -87.6131 108° East 452 520 35,000  Level Minneapolis Center
Sun 10:38:11 PM 44.5108 -87.4142 109° East 451 519 35,000  Level Minneapolis Center
Sun 10:39:13 PM 44.4694 -87.2458 109° East 457 526 35,000  Level Minneapolis Center
Sun 10:40:14 PM 44.4286 -87.0775 109° East 461 531 35,000  Level Minneapolis Center
Sun 10:41:15 PM 44.3864 -86.9072 109° East 464 534 35,000  Level Minneapolis Center
Sun 10:42:17 PM 44.3442 -86.7394 109° East 462 532 35,000  Level Minneapolis Center
Sun 10:43:18 PM 44.3031 -86.5717 109° East 461 531 35,000  Level Minneapolis Center
Sun 10:44:19 PM 44.2606 -86.4042 109° East 462 532 35,000  Level Minneapolis Center
Sun 10:45:20 PM 44.2178 -86.2347 109° East 466 536 35,000  Level Minneapolis Center
Sun 10:46:21 PM 44.1658 -86.0311 110° East 469 540 35,000  Level Minneapolis Center
Sun 10:47:23 PM 44.1219 -85.8606 110° East 471 542 35,000  Level Minneapolis Center
Sun 10:48:24 PM 44.0783 -85.6914 110° East 468 539 35,000  Level Minneapolis Center
Sun 10:49:25 PM 44.0339 -85.5197 110° East 472 543 35,000  Level Minneapolis Center
Sun 10:50:26 PM 43.9881 -85.3450 110° East 476 548 35,000  Level Minneapolis Center
Sun 10:51:28 PM 43.9417 -85.1739 111° Southeast 476 548 35,000  Level Minneapolis Center
Sun 10:52:29 PM 43.8981 -85.0069 110° East 469 540 35,000  Level Minneapolis Center
Sun 10:53:30 PM 43.8531 -84.8383 110° East 466 536 35,000  Level Minneapolis Center
Sun 10:54:31 PM 43.8072 -84.6697 111° Southeast 467 537 35,000  Level Minneapolis Center
Sun 10:55:33 PM 43.7619 -84.5036 111° Southeast 464 534 35,000  Level Minneapolis Center
Sun 10:56:34 PM 43.7169 -84.3369 110° East 464 534 35,000  Level Minneapolis Center
Sun 10:57:35 PM 43.6617 -84.1386 111° Southeast 462 532 35,000  Level Minneapolis Center
Sun 10:58:37 PM 43.6158 -83.9714 111° Southeast 465 535 35,000  Level Minneapolis Center
Sun 10:59:38 PM 43.5678 -83.8036 112° Southeast 468 539 35,000  Level Minneapolis Center
Sun 11:00:39 PM 43.5208 -83.6347 111° Southeast 471 542 35,000  Level Minneapolis Center
Sun 11:01:40 PM 43.4733 -83.4647 111° Southeast 474 545 35,000  Level Minneapolis Center
Sun 11:02:42 PM 43.4247 -83.2967 112° Southeast 474 545 35,000  Level Minneapolis Center
Sun 11:03:43 PM 43.3700 -83.1219 113° Southeast 472 543 35,000  Level Cleveland Center
Sun 11:04:43 PM 43.3214 -82.9572 112° Southeast 472 543 35,000  Level Cleveland Center
Sun 11:05:43 PM 43.2728 -82.7872 111° Southeast 472 543 35,000  Level Cleveland Center
Sun 11:06:43 PM 43.2386 -82.6094 105° East 477 549 35,000  Level Cleveland Center
Sun 11:07:43 PM 43.2144 -82.4261 100° East 477 549 35,000  Level Cleveland Center
Sun 11:08:43 PM 43.1922 -82.2375 99° East 489 563 35,000  Level Cleveland Center
Sun 11:09:51 PM 43.1333 -81.9833 108° East 500 575 35,000  Level Toronto Center
Sun 11:10:51 PM 43.1333 -81.8000 90° East 500 575 35,000  Level Toronto Center
Sun 11:11:51 PM 43.1000 -81.6167 104° East 500 575 35,000  Level Toronto Center
Sun 11:12:51 PM 43.0667 -81.4333 104° East 500 575 35,000  Level Toronto Center
Sun 11:13:51 PM 43.0333 -81.2500 104° East 500 575 35,000  Level Toronto Center
Sun 11:14:51 PM 43.0167 -81.0667 97° East 500 575 35,000  Level Toronto Center
Sun 11:15:51 PM 43.0167 -80.8833 90° East 500 575 35,000  Level Toronto Center
Sun 11:16:51 PM 43.0167 -80.6833 90° East 500 575 35,000  Level Toronto Center
Sun 11:17:51 PM 43.0000 -80.5000 97° East 500 575 35,000  Level Toronto Center
Sun 11:18:51 PM 43.0000 -80.3167 90° East 500 575 35,000  Level Toronto Center
Sun 11:19:51 PM 42.9833 -80.1167 96° East 510 587 35,000  Level Toronto Center
Sun 11:20:51 PM 42.9833 -79.9000 90° East 510 587 35,000  Level Toronto Center
Sun 11:21:51 PM 42.9667 -79.7167 97° East 510 587 35,000  Level Toronto Center
Sun 11:22:51 PM 42.9667 -79.5500 90° East 510 587 35,000  Level Toronto Center
Sun 11:23:51 PM 42.9500 -79.3333 96° East 510 587 35,000  Level Toronto Center
Sun 11:24:51 PM 42.9500 -79.1333 90° East 510 587 35,000  Level Toronto Center
Sun 11:25:51 PM 42.9333 -78.9500 97° East 510 587 35,000  Level Toronto Center
Sun 11:26:51 PM 42.9333 -78.7500 90° East 510 587 35,000  Level Toronto Center
Sun 11:27:43 PM 42.9292 -78.6153 92° East 502 578 35,000  Level Cleveland Center
Sun 11:28:43 PM 42.9233 -78.4142 92° East 508 585 35,000  Level Cleveland Center
Sun 11:29:43 PM 42.9197 -78.2217 91° East 515 593 35,000  Level Cleveland Center
Sun 11:30:43 PM 42.9175 -78.0203 91° East 515 593 35,000  Level Cleveland Center
Sun 11:31:43 PM 42.9108 -77.8222 93° East 515 593 35,000  Level Cleveland Center
Sun 11:32:43 PM 42.9089 -77.6606 91° East 515 593 35,000 -250 Level Cleveland Center
Sun 11:33:43 PM 42.9031 -77.4397 92° East 515 593 34,500 -900 Descending Cleveland Center
Sun 11:34:43 PM 42.8956 -77.2444 93° East 515 593 33,200 -1,723 Descending Cleveland Center
Sun 11:36:51 PM 42.8833 -76.7667 92° East 530 610 29,100 -1,340 Descending Toronto Center
Sun 11:37:51 PM 42.8667 -76.5667 96° East 510 587 29,000 -47 Descending Toronto Center
Sun 11:38:59 PM 42.8708 -76.4153 88° East 508 585 29,000 -234 Level Boston Center
Sun 11:39:59 PM 42.8647 -76.2278 92° East 502 578 28,500 -1,350 Descending Boston Center
Sun 11:40:59 PM 42.8522 -76.0372 95° East 502 578 26,300 -2,100 Descending Boston Center
Sun 11:41:59 PM 42.8492 -75.8642 91° East 487 560 24,300 -1,950 Descending Boston Center
Sun 11:42:59 PM 42.8394 -75.6908 94° East 471 542 22,400 -1,900 Descending Boston Center
Sun 11:43:59 PM 42.8339 -75.5236 93° East 456 525 20,500 -2,050 Descending Boston Center
Sun 11:44:59 PM 42.8258 -75.3475 94° East 434 499 18,300 -1,950 Descending Boston Center
Sun 11:45:59 PM 42.8172 -75.1972 94° East 423 487 16,600 -1,800 Descending Boston Center
Sun 11:46:59 PM 42.8122 -75.0497 93° East 403 464 14,700 -1,655 Descending Boston Center
Sun 11:47:55 PM 42.8047 -74.9192 94° East 384 442 13,400 -1,442 Descending Boston Center
Sun 11:48:43 PM 42.7989 -74.8031 94° East 368 423 12,200 -1,406 Descending Boston Center
Sun 11:48:59 PM 42.7975 -74.7775 94° East 380 437 11,900 -1,180 Descending Boston Center
Sun 11:49:44 PM 42.7914 -74.6669 94° East 360 414 11,000 -900 Descending Boston Center
Sun 11:49:59 PM 42.7878 -74.6300 98° East 367 422 11,000  Level Boston Center
Sun 11:50:45 PM 42.7856 -74.5308 92° East 355 409 11,000 -300 Level Boston Center
Sun 11:51:39 PM 42.7792 -74.4117 94° East 344 396 10,500 -649 Descending Boston Center
Sun 11:51:59 PM 42.7758 -74.3719 97° East 344 396 10,200 -1,377 Descending Boston Center
Sun 11:52:40 PM 42.7708 -74.2983 95° East 295 339 9,100 -1,800 Descending Boston Center
Sun 11:52:59 PM 42.7694 -74.2586 93° East 306 352 8,400 -1,672 Descending Boston Center
Sun 11:53:41 PM 42.7664 -74.1878 93° East 291 335 7,400 -1,500 Descending Boston Center
Sun 11:53:59 PM 42.7606 -74.1539 103° East 295 339 6,900 -1,900 Descending Boston Center
Sun 11:54:41 PM 42.7281 -74.0964 128° Southeast 265 305 5,500 -1,800 Descending Boston Center
Sun 11:54:59 PM 42.7181 -74.0706 118° Southeast 264 304 5,100 -1,967 Descending Boston Center
Sun 11:55:42 PM 42.6856 -74.0106 126° Southeast 269 310 3,500 -1,800 Descending Boston Center
Sun 11:55:59 PM 42.6753 -73.9878 122° Southeast 258 297 3,300 -197 Descending Boston Center
Sun 11:56:43 PM 42.6447 -73.9389 130° Southeast 219 252 3,300  Level Boston Center
Sun 11:56:59 PM 42.6367 -73.9189 119° Southeast 252 290 3,300 -500 Level Boston Center
Sun 11:57:43 PM 42.6269 -73.8736 106° East 179 206 2,800 -900 Descending Boston Center
Sun 11:57:59 PM 42.6292 -73.8539 81° East 166 191 2,400 -885 Descending Boston Center
Sun 11:58:44 PM 42.6422 -73.8061 70° East 175 201 1,900 -200 Descending Boston Center
Sun 11:58:59 PM 42.6194 -73.7972 164° South 166 191 2,200 1,200 Climbing Boston Center

Login

Don't have an account? Register now (free) for customized features, flight alerts, and more!